Warning: Javascript must be enabled to use all the features on this page!


Page Loading - Please Wait...

Click to hideNews Bulletins

Peak Streamflow for the Nation

USGS 13152500 MALAD RIVER NR GOODING ID

Gooding County, Idaho
Hydrologic Unit Code 17040219
Latitude  42°53'11", Longitude 114°48'11" NAD83
Drainage area 2,990  square miles
Contributing drainage area 2,990  square miles
Gage datum 3,345 feet above NGVD29
Output formats
Table
Graph
Tab-separated file
peakfq (watstore) format
Reselect output format
Water
Year
Date Gage
Height
(feet)
Stream-
flow
(cfs)
1916 1916-04-30 6.68 1,6701,6
1917 1917-05-26 7.60 2,3201,6
1918 1918-03-21 2.84 2901,6
1919 1919-03-30 5.10 1,0201,6
1920 1920-02-07 2.19 1691,6
1921 1921-05-31 8.20 2,9906
1922 1922-03-17 9.00 3,6801,6
1923 1923-04-06 3.80 4946
1927 1927-05-19 6.60 1,7106,7
1933 1933-04-04 3.85 5086,7
1936 1936-03-21 5.18 9186
1937 1937-03-14 6.29 1,5006
1938 1938-04-23 8.77 3,8106
1939 1939-03-23 6.99 1,9706
1940 1940-02-28 6.07 1,3106
1941 1941-04-23 3.05 2986
1942 1942-04-16 7.04 1,8906
1943 1943-04-14 9.80 5,2206
1944 1944-04-30 5.87 9426
1945 1945-02-03 6.942 1,8406
1946 1946-04-22 8.47 3,4006
1947 1947-04-18 5.702 1,0506
1948 1948-02-22 5.93 1,1806
1949 1949-03-17 7.10 1,9106
1950 1950-04-28 6.49 1,3906
1951 1951-04-13 8.66 3,4106
1952 1952-04-27 10.67 6,5006
1953 1953-04-08 7.52 2,2406
1954 1954-01-30 6.79 1,6306
1955 1955-05-17 5.00 7386
1956 1956-05-29 8.26 2,7506
1957 1957-02-26 8.552 2,9306
1958 1958-04-23 8.53 3,0106
1959 1959-09-26 4.98 7526
1960 1960-03-08 8.302 3,1906
1961 1961-04-23 3.87 4146
1962 1962-02-10 10.34 5,5006
1963 1963-02-01 11.84 8,4406
1964 1964-04-01 7.19 2,0506
1965 1964-12-22 12.15 8,8606
1966 1966-04-03 8.61 3,5406
1967 1967-06-24 7.85 2,6206
1968 1968-02-22 6.26 1,2906
1969 1969-04-25 9.03 4,0506
1970 1970-04-10 6.882 1,7606
1971 1971-01-20 9.07 4,2706
1972 1972-03-03 9.48 4,7706
1973 1973-04-26 5.89 1,1206
1974 1974-04-28 8.08 2,9506
1975 1975-05-18   2,8101,6
1976 1976-04-13 7.82 2,6706
1977 1976-10-06 4.87 7426
1978 1978-05-07 6.16 1,3006
1979 1979-04-23 4.79 7206
1980 1980-01-14 7.70 2,6106
1981 1981-04-20 5.74 1,0106
1982 1982-05-05 8.61 3,5006
1983 1983-06-02 9.21 4,6206
1984 1984-04-19 9.34 5,0506
1985 1985-04-18   2,3301,6
1986 1986-02-18 10.04 6,4706
1987 1986-11-10 4.74 7196
1988 1988-04-18 3.91 4706
1989 1989-03-09 6.85 1,9106
1990 1990-02-26 4.65 6706
1991 1990-10-09 4.33 5786
1992 1992-04-10 3.98 4906
1993 1993-03-18 8.12 3,2006
1994 1994-04-11 4.54 8036
1995 1995-06-08   2,3301,6
1996 1996-05-20   2,5701,6
1997 1997-01-02 10.06 6,1606
1998 1998-05-17 7.60 2,6306
1999 1999-05-04 7.45 2,4706
2000 2000-02-15 4.56 7506
2001 2001-04-15 4.60 7656
2002 2002-05-09   3971,6
2003 2003-04-21   5481,6
2004 2004-04-12   4991,6
2005 2005-05-17 5.56 1,1706
2006 2006-04-19 8.96 4,5006
2007 2006-10-11 4.35 6266
2008 2008-05-23 4.20 5866
2009 2009-06-07 4.99 7626
2010 2009-10-07 4.76 7776
2011 2011-01-18   1,1601,6
2012 2012-04-03   2,5401,6
2013 2012-12-01   7831,6
2014 2014-09-30 4.02 5446
2015 2014-10-02 4.082 5626
2016 2016-02-16 5.07 9406
2017 2017-04-02 9.29 4,9506
2018 2018-06-01 6.09 1,4106
2019 2019-06-08 7.31 2,4406
2020 2019-10-11 4.53 6686
?
  Peak Gage-Height Qualification Codes.
?
  Peak Streamflow Qualification Codes.